Terminal Aerodrome Forecast
Issued by NWS

Home | Current Version | Previous Version | Text Only | Print | Product List | Glossary On
Versions: 1 2 3 4 5 6 7 8 9 10 11 12 13 14 15 16 17 18 19 20 21 22 23 24 25 26 27 28
642
FTUS41 KCAR 271948 AAE
TAFFVE
TAF AMD
KFVE 271948Z 2720/2818 15012KT P6SM OVC002
      TEMPO 2720/2721 SCT004 OVC015
     FM272100 15010KT P6SM OVC015
     FM272200 17007KT P6SM OVC050
     FM280300 21004KT P6SM BKN015
     FM280400 22004KT P6SM OVC004
     FM281000 30007KT P6SM SCT004 OVC010
     FM281300 33012G20KT P6SM OVC015=

USA.gov is the U.S. government's official web portal to all federal, state and local government web resources and services.